Time;durP1;ratioP1;P1;durP2;ratioP2;P2;SDS_P1;SDS_P2;PMS_P1;PMS_P2;Temp;Humidity;BMP_temperature;BMP_pressure;BME280_temperature;BME280_humidity;BME280_pressure;Samples;Min_cycle;Max_cycle;Signal;HPM_P1;HPM_P2
2023/10/27 00:01:30;;;;;;;3.85;1.42;;;;;;;;;;5030868;28;20260;-72
2023/10/27 00:03:55;;;;;;;13.73;4.50;;;;;;;;;;5030193;28;20040;-72
2023/10/27 00:06:20;;;;;;;11.47;4.37;;;;;;;;;;5028334;28;20259;-72
2023/10/27 00:08:45;;;;;;;10.13;3.40;;;;;;;;;;5029791;28;20359;-72
2023/10/27 00:11:10;;;;;;;19.67;3.58;;;;;;;;;;5030211;28;20029;-72
2023/10/27 00:13:36;;;;;;;10.13;3.17;;;;;;;;;;5032174;28;20363;-71
2023/10/27 00:16:06;;;;;;;9.17;3.73;;;;;;;;;;5031251;28;20523;-71
2023/10/27 00:18:31;;;;;;;18.33;3.67;;;;;;;;;;5032034;28;20263;-71
2023/10/27 00:20:56;;;;;;;6.43;3.30;;;;;;;;;;5029852;28;20014;-72
2023/10/27 00:23:22;;;;;;;8.87;3.80;;;;;;;;;;5028137;28;20838;-72
2023/10/27 00:25:47;;;;;;;11.15;3.78;;;;;;;;;;5030574;28;20302;-72
2023/10/27 00:28:12;;;;;;;19.73;4.50;;;;;;;;;;5031543;28;20478;-72
2023/10/27 00:30:37;;;;;;;11.00;4.43;;;;;;;;;;5030401;28;20048;-72
2023/10/27 00:33:03;;;;;;;10.87;3.87;;;;;;;;;;5031870;28;20744;-72
2023/10/27 00:35:28;;;;;;;11.07;3.90;;;;;;;;;;5028915;28;20296;-72
2023/10/27 00:37:53;;;;;;;10.37;3.70;;;;;;;;;;5028972;28;20812;-71
2023/10/27 00:40:18;;;;;;;11.43;4.03;;;;;;;;;;5030914;28;20275;-71
2023/10/27 00:42:43;;;;;;;12.97;3.70;;;;;;;;;;5030232;28;20018;-71
2023/10/27 00:45:08;;;;;;;18.57;3.23;;;;;;;;;;5031800;28;20283;-71
2023/10/27 00:47:34;;;;;;;9.57;2.50;;;;;;;;;;5030699;28;20363;-71
2023/10/27 00:49:59;;;;;;;21.27;3.85;;;;;;;;;;5030939;28;20021;-71
2023/10/27 00:52:25;;;;;;;13.57;4.10;;;;;;;;;;5026624;28;20073;-71
2023/10/27 00:54:51;;;;;;;15.55;3.22;;;;;;;;;;5030645;28;20051;-72
2023/10/27 00:57:16;;;;;;;13.43;3.55;;;;;;;;;;5030411;28;20111;-71
2023/10/27 00:59:41;;;;;;;18.90;3.25;;;;;;;;;;5031214;28;20009;-71
2023/10/27 01:02:07;;;;;;;14.90;3.42;;;;;;;;;;5029339;28;20470;-71
2023/10/27 01:04:32;;;;;;;16.50;3.83;;;;;;;;;;5031394;28;20037;-71
2023/10/27 01:06:57;;;;;;;16.98;3.95;;;;;;;;;;5029347;28;20017;-71
2023/10/27 01:09:22;;;;;;;14.65;3.00;;;;;;;;;;5029331;28;20048;-71
2023/10/27 01:11:48;;;;;;;18.27;3.63;;;;;;;;;;5031275;28;20025;-71
2023/10/27 01:14:13;;;;;;;6.22;3.10;;;;;;;;;;5029534;28;20280;-71
2023/10/27 01:16:38;;;;;;;10.67;2.77;;;;;;;;;;5027509;28;20018;-71
2023/10/27 01:19:04;;;;;;;11.65;3.10;;;;;;;;;;5028966;28;20296;-72
2023/10/27 01:21:29;;;;;;;6.87;2.60;;;;;;;;;;5029185;28;20699;-71
2023/10/27 01:23:54;;;;;;;7.60;2.17;;;;;;;;;;5029006;28;20276;-72
2023/10/27 01:26:20;;;;;;;2.40;1.40;;;;;;;;;;5028961;28;20025;-71
2023/10/27 01:28:45;;;;;;;6.03;2.50;;;;;;;;;;5031105;28;20075;-71
2023/10/27 01:31:10;;;;;;;17.38;3.90;;;;;;;;;;5026751;28;20280;-71
2023/10/27 01:36:38;;;;;;;6.40;3.17;;;;;;;;;;5026879;28;20798;-71
2023/10/27 01:39:03;;;;;;;12.83;3.27;;;;;;;;;;5044587;28;20026;-71
2023/10/27 01:41:28;;;;;;;18.02;2.92;;;;;;;;;;5030541;28;20356;-71
2023/10/27 01:43:53;;;;;;;12.07;3.13;;;;;;;;;;5029090;28;20500;-71
2023/10/27 01:46:19;;;;;;;16.30;3.60;;;;;;;;;;5030341;28;20604;-71
2023/10/27 01:48:44;;;;;;;16.20;3.57;;;;;;;;;;5030095;28;20044;-71
2023/10/27 01:51:09;;;;;;;19.67;4.43;;;;;;;;;;5029527;28;20299;-71
2023/10/27 01:53:34;;;;;;;19.27;3.17;;;;;;;;;;5029250;28;20397;-71
2023/10/27 01:55:59;;;;;;;9.02;2.75;;;;;;;;;;5029717;28;20260;-71
2023/10/27 01:58:27;;;;;;;9.27;3.63;;;;;;;;;;5029591;28;20025;-71
2023/10/27 02:00:52;;;;;;;19.85;3.20;;;;;;;;;;5028707;28;20686;-71
2023/10/27 02:03:18;;;;;;;9.52;2.58;;;;;;;;;;5029397;28;20155;-71
2023/10/27 02:05:43;;;;;;;8.53;3.47;;;;;;;;;;5029472;28;20065;-71
2023/10/27 02:08:08;;;;;;;7.18;2.60;;;;;;;;;;5029640;28;20300;-71
2023/10/27 02:10:33;;;;;;;13.70;3.30;;;;;;;;;;5029148;28;20030;-71
2023/10/27 02:12:59;;;;;;;10.17;2.70;;;;;;;;;;5027569;28;20339;-71
2023/10/27 02:15:24;;;;;;;18.53;3.13;;;;;;;;;;5024009;28;20698;-71
2023/10/27 02:17:49;;;;;;;12.32;3.40;;;;;;;;;;5029949;28;20331;-71
2023/10/27 02:20:14;;;;;;;9.00;2.37;;;;;;;;;;5029799;28;20490;-72
2023/10/27 02:22:39;;;;;;;8.30;2.85;;;;;;;;;;5028095;28;20283;-71
2023/10/27 02:25:05;;;;;;;14.93;2.83;;;;;;;;;;5029354;28;20018;-71
2023/10/27 02:27:31;;;;;;;5.07;1.20;;;;;;;;;;5024201;28;20317;-72
2023/10/27 02:29:56;;;;;;;7.30;2.33;;;;;;;;;;5028695;28;20436;-71
2023/10/27 02:32:21;;;;;;;11.60;2.90;;;;;;;;;;5029387;28;20029;-71
2023/10/27 02:34:47;;;;;;;16.47;2.30;;;;;;;;;;5029823;28;20021;-71
2023/10/27 02:37:12;;;;;;;10.77;2.47;;;;;;;;;;5029561;28;20351;-71
2023/10/27 02:39:37;;;;;;;10.48;2.28;;;;;;;;;;5028442;28;20633;-71
2023/10/27 02:42:02;;;;;;;11.65;1.90;;;;;;;;;;5029026;28;20013;-72
2023/10/27 02:44:27;;;;;;;13.20;2.55;;;;;;;;;;5024466;28;20032;-71
2023/10/27 02:46:53;;;;;;;22.20;2.33;;;;;;;;;;5029857;28;20024;-71
2023/10/27 02:49:18;;;;;;;12.40;2.17;;;;;;;;;;5029461;28;20789;-71
2023/10/27 02:51:43;;;;;;;17.20;3.70;;;;;;;;;;5028470;28;20322;-71
2023/10/27 02:54:08;;;;;;;15.60;2.50;;;;;;;;;;5029433;28;20284;-71
2023/10/27 02:56:34;;;;;;;9.52;3.00;;;;;;;;;;5028560;28;20100;-72
2023/10/27 02:58:59;;;;;;;10.65;3.03;;;;;;;;;;5029406;28;20163;-71
2023/10/27 03:01:25;;;;;;;14.73;2.80;;;;;;;;;;5029028;28;20080;-71
2023/10/27 03:03:50;;;;;;;11.47;2.20;;;;;;;;;;5027082;28;20052;-71
2023/10/27 03:06:15;;;;;;;14.88;2.78;;;;;;;;;;5027547;28;20259;-71
2023/10/27 03:08:42;;;;;;;10.63;2.45;;;;;;;;;;5029362;28;20017;-71
2023/10/27 03:11:08;;;;;;;16.67;2.70;;;;;;;;;;5027954;28;20060;-71
2023/10/27 03:13:33;;;;;;;15.85;2.88;;;;;;;;;;5031652;28;20418;-71
2023/10/27 03:15:59;;;;;;;14.30;2.90;;;;;;;;;;5032826;28;20025;-71
2023/10/27 03:18:24;;;;;;;17.00;3.00;;;;;;;;;;5032293;28;20599;-72
2023/10/27 03:20:59;;;;;;;16.63;3.30;;;;;;;;;;5033056;28;20021;-71
2023/10/27 03:23:25;;;;;;;14.05;2.20;;;;;;;;;;5031990;28;20025;-71
2023/10/27 03:25:50;;;;;;;11.82;2.00;;;;;;;;;;5033067;28;20089;-71
2023/10/27 03:28:16;;;;;;;11.48;2.00;;;;;;;;;;5032978;28;20041;-71
2023/10/27 03:30:42;;;;;;;15.52;2.53;;;;;;;;;;5032854;28;20040;-71
2023/10/27 03:33:07;;;;;;;10.50;1.92;;;;;;;;;;5028905;28;20028;-71
2023/10/27 03:35:32;;;;;;;12.95;2.88;;;;;;;;;;5028442;28;20391;-71
2023/10/27 03:37:59;;;;;;;16.58;3.20;;;;;;;;;;5028660;28;20386;-71
2023/10/27 03:40:24;;;;;;;19.45;2.20;;;;;;;;;;5027476;28;20029;-71
2023/10/27 03:42:49;;;;;;;8.93;1.90;;;;;;;;;;5031475;28;20029;-71
2023/10/27 03:45:15;;;;;;;6.50;1.97;;;;;;;;;;5028585;28;20268;-72
2023/10/27 03:47:40;;;;;;;13.43;2.23;;;;;;;;;;5028317;28;20691;-71
2023/10/27 03:50:05;;;;;;;12.53;2.57;;;;;;;;;;5027718;28;20268;-71
2023/10/27 03:52:30;;;;;;;10.82;1.83;;;;;;;;;;5030063;28;20291;-71
2023/10/27 03:54:56;;;;;;;14.45;2.58;;;;;;;;;;5028372;28;20060;-71
2023/10/27 03:57:21;;;;;;;16.92;2.60;;;;;;;;;;5027884;28;20009;-71
2023/10/27 03:59:46;;;;;;;9.05;2.35;;;;;;;;;;5027763;28;20665;-71
2023/10/27 04:02:11;;;;;;;15.15;2.80;;;;;;;;;;5028959;28;20071;-71
2023/10/27 04:04:37;;;;;;;6.43;1.90;;;;;;;;;;5030269;28;20033;-71
2023/10/27 04:07:02;;;;;;;14.82;2.75;;;;;;;;;;5027939;28;20356;-71
2023/10/27 04:09:27;;;;;;;17.13;2.20;;;;;;;;;;5025375;28;20040;-71
2023/10/27 04:11:53;;;;;;;18.70;2.75;;;;;;;;;;5027593;28;20441;-71
2023/10/27 04:14:18;;;;;;;11.65;1.75;;;;;;;;;;5027559;28;20025;-72
2023/10/27 04:16:43;;;;;;;7.45;2.35;;;;;;;;;;5028319;28;20013;-71
2023/10/27 04:19:08;;;;;;;20.10;3.13;;;;;;;;;;5028476;28;20033;-71
2023/10/27 04:21:33;;;;;;;16.30;2.80;;;;;;;;;;5028348;28;20288;-71
2023/10/27 04:23:59;;;;;;;13.77;2.37;;;;;;;;;;5027743;28;20322;-71
2023/10/27 04:26:24;;;;;;;11.57;2.90;;;;;;;;;;5028006;28;20268;-71
2023/10/27 04:28:49;;;;;;;9.73;2.87;;;;;;;;;;5028755;28;20029;-71
2023/10/27 04:31:14;;;;;;;15.38;2.90;;;;;;;;;;5042303;28;20256;-71
2023/10/27 04:33:39;;;;;;;10.18;2.25;;;;;;;;;;5029157;28;20030;-71
2023/10/27 04:36:05;;;;;;;11.47;2.43;;;;;;;;;;5028729;28;20413;-71
2023/10/27 04:38:30;;;;;;;9.18;2.55;;;;;;;;;;5024489;28;20268;-71
2023/10/27 04:40:55;;;;;;;10.63;3.20;;;;;;;;;;5027087;28;20020;-72
2023/10/27 04:43:21;;;;;;;15.10;2.72;;;;;;;;;;5026000;28;20030;-72
2023/10/27 04:45:46;;;;;;;10.73;2.55;;;;;;;;;;5028676;28;20017;-72
2023/10/27 04:48:11;;;;;;;16.23;3.10;;;;;;;;;;5025686;28;20016;-72
2023/10/27 04:50:36;;;;;;;18.00;3.00;;;;;;;;;;5025787;28;20474;-71
2023/10/27 04:53:02;;;;;;;14.80;1.77;;;;;;;;;;5030314;28;20279;-72
2023/10/27 04:55:27;;;;;;;14.32;2.55;;;;;;;;;;5023777;28;20026;-71
2023/10/27 04:57:52;;;;;;;9.20;2.45;;;;;;;;;;5028291;28;20504;-72
2023/10/27 05:00:17;;;;;;;8.10;2.55;;;;;;;;;;5025677;28;20044;-71
2023/10/27 05:02:42;;;;;;;11.57;3.13;;;;;;;;;;5028274;28;20013;-72
2023/10/27 05:05:08;;;;;;;19.50;2.95;;;;;;;;;;5025897;28;20033;-72
2023/10/27 05:07:34;;;;;;;8.55;2.42;;;;;;;;;;5024232;28;20501;-72
2023/10/27 05:09:59;;;;;;;18.92;3.92;;;;;;;;;;5025382;28;20018;-72
2023/10/27 05:12:24;;;;;;;12.10;2.80;;;;;;;;;;5027314;28;20385;-71
2023/10/27 05:14:49;;;;;;;9.52;2.65;;;;;;;;;;5026015;28;20370;-72
2023/10/27 05:17:15;;;;;;;20.27;3.57;;;;;;;;;;5023771;28;20079;-71
2023/10/27 05:19:40;;;;;;;13.17;3.33;;;;;;;;;;5027470;28;20264;-71
2023/10/27 05:22:05;;;;;;;15.40;3.00;;;;;;;;;;5027275;28;20309;-71
2023/10/27 05:24:31;;;;;;;17.00;3.45;;;;;;;;;;5028276;28;20026;-72
2023/10/27 05:26:56;;;;;;;9.10;2.75;;;;;;;;;;5027780;28;20489;-72
2023/10/27 05:29:22;;;;;;;14.27;3.63;;;;;;;;;;5023095;28;20033;-72
2023/10/27 05:31:47;;;;;;;11.97;3.43;;;;;;;;;;5027348;28;20276;-72
2023/10/27 05:34:12;;;;;;;15.10;4.13;;;;;;;;;;5026517;28;20795;-72
2023/10/27 05:36:37;;;;;;;15.43;3.13;;;;;;;;;;5023866;28;20280;-72
2023/10/27 05:39:02;;;;;;;9.13;3.22;;;;;;;;;;5027119;28;20275;-72
2023/10/27 05:41:28;;;;;;;7.35;2.25;;;;;;;;;;5024613;28;20028;-72
2023/10/27 05:43:54;;;;;;;8.47;3.23;;;;;;;;;;5029888;28;20104;-72
2023/10/27 05:46:20;;;;;;;16.80;3.50;;;;;;;;;;5022889;28;20264;-72
2023/10/27 05:48:45;;;;;;;11.18;2.95;;;;;;;;;;5025848;28;20075;-72
2023/10/27 05:51:11;;;;;;;11.93;3.50;;;;;;;;;;5023499;28;20075;-72
2023/10/27 05:53:36;;;;;;;8.30;2.50;;;;;;;;;;5027128;28;20551;-71
2023/10/27 05:56:01;;;;;;;8.90;3.13;;;;;;;;;;5029460;28;20017;-72
2023/10/27 05:58:32;;;;;;;1.55;0.75;;;;;;;;;;5024283;28;20268;-72
2023/10/27 06:00:57;;;;;;;18.40;3.70;;;;;;;;;;5024845;28;20025;-73
2023/10/27 06:03:23;;;;;;;16.33;3.53;;;;;;;;;;5026171;28;20562;-73
2023/10/27 06:05:48;;;;;;;15.10;3.17;;;;;;;;;;5022952;28;20346;-73
2023/10/27 06:08:13;;;;;;;14.68;2.63;;;;;;;;;;5024544;28;20017;-73
2023/10/27 06:10:40;;;;;;;13.83;2.93;;;;;;;;;;5025659;28;20071;-72
2023/10/27 06:13:05;;;;;;;12.50;3.75;;;;;;;;;;5029022;28;20286;-73
2023/10/27 06:15:30;;;;;;;11.47;3.80;;;;;;;;;;5028305;28;20465;-72
2023/10/27 06:17:55;;;;;;;12.97;4.13;;;;;;;;;;5026823;28;20283;-73
2023/10/27 06:20:22;;;;;;;12.65;2.15;;;;;;;;;;5022503;28;20441;-72
2023/10/27 06:22:47;;;;;;;15.15;4.13;;;;;;;;;;5026503;28;20057;-73
2023/10/27 06:25:12;;;;;;;16.08;4.88;;;;;;;;;;5027650;28;20604;-72
2023/10/27 06:27:37;;;;;;;13.82;3.05;;;;;;;;;;5020926;28;20116;-73
2023/10/27 06:30:03;;;;;;;18.80;3.42;;;;;;;;;;5021785;28;20025;-72
2023/10/27 06:32:28;;;;;;;11.48;3.92;;;;;;;;;;5022051;28;20124;-73
2023/10/27 06:34:54;;;;;;;16.83;3.13;;;;;;;;;;5039605;28;20017;-73
2023/10/27 06:37:19;;;;;;;9.67;2.80;;;;;;;;;;5021846;28;20252;-73
2023/10/27 06:39:44;;;;;;;32.25;4.78;;;;;;;;;;5021761;28;20299;-72
2023/10/27 06:42:09;;;;;;;6.53;2.15;;;;;;;;;;5023808;28;20017;-72
2023/10/27 06:44:34;;;;;;;19.48;3.55;;;;;;;;;;5027434;28;20025;-73
2023/10/27 06:47:00;;;;;;;15.20;3.50;;;;;;;;;;5023829;28;20029;-72
2023/10/27 06:49:25;;;;;;;6.47;1.50;;;;;;;;;;5020670;28;20668;-71
2023/10/27 06:51:50;;;;;;;18.65;3.72;;;;;;;;;;5024891;28;20264;-73
2023/10/27 06:54:15;;;;;;;4.35;2.10;;;;;;;;;;5022852;28;20032;-73
2023/10/27 06:56:41;;;;;;;18.92;3.72;;;;;;;;;;5023670;28;20013;-72
2023/10/27 06:59:06;;;;;;;11.95;3.20;;;;;;;;;;5026861;28;20486;-73
2023/10/27 07:01:31;;;;;;;15.20;2.72;;;;;;;;;;5024255;28;20045;-73
2023/10/27 07:03:56;;;;;;;11.68;2.10;;;;;;;;;;5022621;28;20453;-73
2023/10/27 07:06:21;;;;;;;5.70;1.85;;;;;;;;;;5021185;28;20017;-73
2023/10/27 07:08:47;;;;;;;3.20;2.03;;;;;;;;;;5024643;28;20092;-72
2023/10/27 07:11:12;;;;;;;10.82;3.00;;;;;;;;;;5024885;28;20618;-73
2023/10/27 07:13:38;;;;;;;10.95;2.90;;;;;;;;;;5024770;28;20386;-73
2023/10/27 07:16:03;;;;;;;3.85;1.02;;;;;;;;;;5022966;28;20446;-71
2023/10/27 07:18:29;;;;;;;2.95;1.05;;;;;;;;;;5029946;28;20022;-73
2023/10/27 07:20:54;;;;;;;10.50;3.13;;;;;;;;;;5023005;28;20389;-72
2023/10/27 07:23:19;;;;;;;11.75;2.63;;;;;;;;;;5027169;28;20014;-70
2023/10/27 07:25:44;;;;;;;10.02;2.17;;;;;;;;;;5027169;28;20041;-72
2023/10/27 07:28:10;;;;;;;6.65;2.35;;;;;;;;;;5028806;28;20017;-71
2023/10/27 07:30:35;;;;;;;10.48;1.90;;;;;;;;;;5023861;28;20030;-73
2023/10/27 07:33:00;;;;;;;9.43;1.52;;;;;;;;;;5026213;28;20028;-73
2023/10/27 07:35:25;;;;;;;14.90;1.27;;;;;;;;;;5026941;28;20025;-72
2023/10/27 07:37:51;;;;;;;12.05;2.13;;;;;;;;;;5025348;28;20096;-72
2023/10/27 07:40:16;;;;;;;10.00;1.93;;;;;;;;;;5022684;28;20809;-73
2023/10/27 07:42:42;;;;;;;11.43;1.55;;;;;;;;;;5021264;28;20265;-72
2023/10/27 07:45:07;;;;;;;7.25;1.50;;;;;;;;;;5022909;28;20033;-72
2023/10/27 07:47:32;;;;;;;5.60;1.50;;;;;;;;;;5023305;28;20072;-72
2023/10/27 07:50:00;;;;;;;6.78;1.70;;;;;;;;;;5022705;28;20057;-71
2023/10/27 07:52:25;;;;;;;1.33;0.95;;;;;;;;;;5018168;28;20022;-73
2023/10/27 07:54:50;;;;;;;3.30;1.15;;;;;;;;;;5022013;28;20064;-72
2023/10/27 07:57:15;;;;;;;4.88;1.75;;;;;;;;;;5024111;28;20033;-72
2023/10/27 07:59:41;;;;;;;5.13;2.07;;;;;;;;;;5027337;28;20020;-72
2023/10/27 08:02:06;;;;;;;4.30;1.33;;;;;;;;;;5028347;28;20264;-72
2023/10/27 08:04:37;;;;;;;6.43;0.60;;;;;;;;;;5022092;28;20022;-72
2023/10/27 08:07:02;;;;;;;4.60;1.25;;;;;;;;;;5029120;28;20339;-72
2023/10/27 08:09:29;;;;;;;1.92;1.13;;;;;;;;;;5022701;28;20109;-72
2023/10/27 08:11:55;;;;;;;3.70;0.63;;;;;;;;;;5026091;28;20021;-71
2023/10/27 08:14:20;;;;;;;3.88;0.75;;;;;;;;;;5026875;28;20030;-72
2023/10/27 08:16:45;;;;;;;1.40;1.17;;;;;;;;;;5029706;28;20105;-72
2023/10/27 08:19:10;;;;;;;3.40;1.87;;;;;;;;;;5026521;28;20295;-72
2023/10/27 08:21:35;;;;;;;7.93;2.13;;;;;;;;;;5023304;28;20269;-72
2023/10/27 08:24:01;;;;;;;7.23;2.40;;;;;;;;;;5025952;28;20281;-72
2023/10/27 08:26:26;;;;;;;7.55;2.75;;;;;;;;;;5024826;28;20601;-73
2023/10/27 08:28:51;;;;;;;11.25;2.30;;;;;;;;;;5025153;28;20104;-72
2023/10/27 08:31:16;;;;;;;9.63;3.22;;;;;;;;;;5028762;28;20206;-71
2023/10/27 08:33:42;;;;;;;5.57;2.33;;;;;;;;;;5026425;28;20515;-72
2023/10/27 08:36:07;;;;;;;5.55;2.17;;;;;;;;;;5025224;28;20259;-72
2023/10/27 08:38:35;;;;;;;6.27;1.47;;;;;;;;;;5024991;28;20026;-72
2023/10/27 08:41:00;;;;;;;7.13;3.00;;;;;;;;;;5025163;28;20256;-73
2023/10/27 08:43:26;;;;;;;8.13;2.80;;;;;;;;;;5028667;28;20097;-73
2023/10/27 08:45:51;;;;;;;9.35;1.13;;;;;;;;;;5024431;28;20021;-72
2023/10/27 08:48:17;;;;;;;3.55;1.73;;;;;;;;;;5026579;28;20021;-73
2023/10/27 08:50:42;;;;;;;8.85;2.35;;;;;;;;;;5024738;28;20025;-73
2023/10/27 08:53:14;;;;;;;5.97;2.43;;;;;;;;;;5027952;28;20020;-72
2023/10/27 08:55:39;;;;;;;15.38;2.55;;;;;;;;;;5022773;28;20645;-72
2023/10/27 08:58:05;;;;;;;10.80;2.70;;;;;;;;;;5026307;28;20088;-72
2023/10/27 09:00:30;;;;;;;13.70;2.87;;;;;;;;;;5029426;28;20036;-72
2023/10/27 09:02:55;;;;;;;12.80;2.50;;;;;;;;;;5024408;28;20605;-72
2023/10/27 09:05:23;;;;;;;5.07;2.55;;;;;;;;;;5022297;28;20283;-73
2023/10/27 09:07:49;;;;;;;7.30;2.92;;;;;;;;;;5023079;28;21799;-72
2023/10/27 09:10:14;;;;;;;16.00;4.60;;;;;;;;;;5025199;28;20053;-72
2023/10/27 09:12:41;;;;;;;14.40;3.47;;;;;;;;;;5022316;28;20375;-72
2023/10/27 09:15:12;;;;;;;9.90;3.42;;;;;;;;;;5023238;28;20048;-72
2023/10/27 09:17:53;;;;;;;5.55;3.13;;;;;;;;;;5024489;28;20021;-72
2023/10/27 09:20:20;;;;;;;8.52;2.88;;;;;;;;;;5024849;28;20072;-72
2023/10/27 09:22:57;;;;;;;11.98;3.33;;;;;;;;;;5026885;28;20100;-72
2023/10/27 09:25:26;;;;;;;9.13;3.35;;;;;;;;;;5018820;28;20494;-72
2023/10/27 09:27:51;;;;;;;9.60;3.00;;;;;;;;;;5026163;28;20109;-72
2023/10/27 09:30:24;;;;;;;8.95;3.45;;;;;;;;;;5024090;28;20502;-72
2023/10/27 09:32:49;;;;;;;2.50;1.50;;;;;;;;;;5025057;28;20018;-72
2023/10/27 09:35:14;;;;;;;5.57;2.90;;;;;;;;;;5025833;28;20439;-73
2023/10/27 09:37:43;;;;;;;8.65;2.55;;;;;;;;;;5021585;28;20265;-73
2023/10/27 09:40:13;;;;;;;10.27;2.05;;;;;;;;;;5024810;28;20493;-72
2023/10/27 09:42:38;;;;;;;9.65;3.40;;;;;;;;;;5021236;28;20092;-72
2023/10/27 09:45:07;;;;;;;3.72;1.85;;;;;;;;;;5025832;28;20592;-72
2023/10/27 09:47:39;;;;;;;4.65;2.20;;;;;;;;;;5019791;28;20414;-72
2023/10/27 09:50:08;;;;;;;11.82;2.28;;;;;;;;;;5025019;28;20029;-72
2023/10/27 09:52:33;;;;;;;3.83;1.85;;;;;;;;;;5020183;28;20033;-73
2023/10/27 09:55:00;;;;;;;7.18;3.05;;;;;;;;;;5023443;28;20034;-72
2023/10/27 09:57:26;;;;;;;8.05;2.97;;;;;;;;;;5025910;28;20021;-72
2023/10/27 09:59:52;;;;;;;2.45;1.08;;;;;;;;;;5023478;28;20021;-72
2023/10/27 10:02:17;;;;;;;12.48;3.50;;;;;;;;;;5021129;28;20010;-72
2023/10/27 10:04:52;;;;;;;14.60;3.40;;;;;;;;;;5021406;28;20505;-72
2023/10/27 10:07:33;;;;;;;5.57;2.63;;;;;;;;;;5020868;28;20449;-72
2023/10/27 10:10:18;;;;;;;8.80;3.33;;;;;;;;;;5022243;28;20098;-72
2023/10/27 10:12:56;;;;;;;3.55;1.83;;;;;;;;;;5017653;28;20044;-72
2023/10/27 10:15:22;;;;;;;9.20;3.63;;;;;;;;;;5021935;28;20997;-72
2023/10/27 10:17:48;;;;;;;10.73;3.38;;;;;;;;;;5022425;28;20061;-72
2023/10/27 10:20:13;;;;;;;6.90;3.38;;;;;;;;;;5022013;28;20036;-72
2023/10/27 10:22:38;;;;;;;12.13;3.85;;;;;;;;;;5019636;28;20056;-72
2023/10/27 10:25:18;;;;;;;11.80;5.07;;;;;;;;;;5027136;28;20056;-72
2023/10/27 10:28:13;;;;;;;6.28;1.67;;;;;;;;;;5020337;28;20109;-72
2023/10/27 10:30:39;;;;;;;8.48;3.08;;;;;;;;;;5010964;28;20034;-72
2023/10/27 10:33:16;;;;;;;11.55;3.30;;;;;;;;;;5022269;28;20080;-72
2023/10/27 10:35:42;;;;;;;3.80;2.10;;;;;;;;;;5022221;28;20490;-72
2023/10/27 10:38:20;;;;;;;12.73;2.60;;;;;;;;;;5026052;28;20021;-72
2023/10/27 10:40:52;;;;;;;12.60;2.95;;;;;;;;;;5022132;28;20054;-72
2023/10/27 10:43:23;;;;;;;9.20;2.88;;;;;;;;;;5020415;28;20067;-72
2023/10/27 10:45:53;;;;;;;11.27;2.97;;;;;;;;;;5020929;28;20025;-72
2023/10/27 10:48:19;;;;;;;9.55;3.30;;;;;;;;;;5017915;28;20022;-72
2023/10/27 10:50:44;;;;;;;6.40;3.65;;;;;;;;;;5023449;28;20557;-72
2023/10/27 10:53:15;;;;;;;8.45;3.80;;;;;;;;;;5021967;28;20020;-71
2023/10/27 10:55:41;;;;;;;8.75;2.67;;;;;;;;;;5021977;28;20018;-72
2023/10/27 10:58:06;;;;;;;7.93;3.75;;;;;;;;;;5024093;28;20025;-72
2023/10/27 11:00:35;;;;;;;16.40;4.63;;;;;;;;;;5018057;28;20498;-72
2023/10/27 11:03:10;;;;;;;11.23;4.15;;;;;;;;;;5017844;28;20673;-72
2023/10/27 11:05:38;;;;;;;10.23;4.32;;;;;;;;;;5029760;28;20053;-73
2023/10/27 11:08:03;;;;;;;10.45;4.55;;;;;;;;;;5024982;28;20447;-73
2023/10/27 11:10:28;;;;;;;8.77;3.97;;;;;;;;;;5020860;28;20116;-72
2023/10/27 11:12:54;;;;;;;10.43;4.15;;;;;;;;;;5021754;28;20052;-72
2023/10/27 11:15:37;;;;;;;13.38;5.00;;;;;;;;;;5019885;28;20052;-73
2023/10/27 11:18:06;;;;;;;18.13;5.22;;;;;;;;;;5024547;28;20429;-73
2023/10/27 11:20:35;;;;;;;15.45;4.53;;;;;;;;;;5016630;28;20485;-72
2023/10/27 11:23:27;;;;;;;8.90;4.28;;;;;;;;;;5029662;28;20017;-72
2023/10/27 11:25:59;;;;;;;14.95;5.13;;;;;;;;;;5025516;28;20028;-72
2023/10/27 11:28:26;;;;;;;13.75;6.38;;;;;;;;;;5027061;28;20571;-72
2023/10/27 11:31:14;;;;;;;13.38;4.40;;;;;;;;;;5029276;28;20018;-72
2023/10/27 11:33:55;;;;;;;14.60;5.30;;;;;;;;;;5022477;28;20557;-73
2023/10/27 11:36:21;;;;;;;18.83;5.20;;;;;;;;;;5022438;28;20009;-73
2023/10/27 11:38:46;;;;;;;10.23;4.47;;;;;;;;;;5022998;28;20036;-73
2023/10/27 11:41:12;;;;;;;15.05;4.68;;;;;;;;;;5027339;28;20053;-73
2023/10/27 11:43:37;;;;;;;13.63;5.18;;;;;;;;;;5024283;28;20030;-73
2023/10/27 11:46:10;;;;;;;17.98;4.72;;;;;;;;;;5024904;28;20017;-72
2023/10/27 11:48:35;;;;;;;13.27;3.85;;;;;;;;;;5022281;28;20021;-72
2023/10/27 11:51:00;;;;;;;16.63;4.90;;;;;;;;;;5027993;28;20013;-72
2023/10/27 11:53:25;;;;;;;11.20;5.30;;;;;;;;;;5021644;28;20625;-73
2023/10/27 11:55:50;;;;;;;7.53;3.33;;;;;;;;;;5023430;28;20283;-72
2023/10/27 11:58:16;;;;;;;15.88;4.63;;;;;;;;;;5026211;28;20268;-73
2023/10/27 12:00:41;;;;;;;6.57;3.23;;;;;;;;;;5024675;28;20358;-73
2023/10/27 12:03:06;;;;;;;8.23;3.37;;;;;;;;;;5028104;28;20260;-73
2023/10/27 12:05:31;;;;;;;16.60;4.10;;;;;;;;;;5026344;28;20280;-72
2023/10/27 12:07:56;;;;;;;13.00;3.47;;;;;;;;;;5028418;28;20253;-73
2023/10/27 12:10:21;;;;;;;12.83;3.33;;;;;;;;;;5024206;28;20331;-73
2023/10/27 12:12:47;;;;;;;7.93;2.97;;;;;;;;;;5024304;28;20340;-73
2023/10/27 12:15:14;;;;;;;11.80;3.60;;;;;;;;;;5023348;28;20291;-73
2023/10/27 12:17:40;;;;;;;12.57;2.97;;;;;;;;;;5026686;28;20097;-72
2023/10/27 12:20:06;;;;;;;10.60;1.70;;;;;;;;;;5023757;28;20044;-73
2023/10/27 12:22:32;;;;;;;8.32;2.88;;;;;;;;;;5020675;28;20168;-72
2023/10/27 12:24:57;;;;;;;14.57;2.17;;;;;;;;;;5027105;28;20108;-73
2023/10/27 12:27:22;;;;;;;10.77;2.60;;;;;;;;;;5025104;28;20052;-72
2023/10/27 12:29:48;;;;;;;4.43;1.80;;;;;;;;;;5029039;28;20025;-72
2023/10/27 12:32:13;;;;;;;11.83;2.10;;;;;;;;;;5021926;28;20379;-73
2023/10/27 12:34:38;;;;;;;9.70;2.42;;;;;;;;;;5023760;28;20375;-72
2023/10/27 12:37:03;;;;;;;9.88;2.53;;;;;;;;;;5027495;28;20010;-73
2023/10/27 12:39:28;;;;;;;9.68;3.03;;;;;;;;;;5019926;28;20034;-73
2023/10/27 12:41:54;;;;;;;14.27;4.03;;;;;;;;;;5022446;28;20089;-72
2023/10/27 12:44:19;;;;;;;9.97;2.80;;;;;;;;;;5024973;28;20640;-73
2023/10/27 12:46:44;;;;;;;6.07;2.47;;;;;;;;;;5022765;28;20276;-72
2023/10/27 12:49:10;;;;;;;12.25;3.53;;;;;;;;;;5022103;28;20317;-72
2023/10/27 12:51:38;;;;;;;13.00;2.67;;;;;;;;;;5019798;28;20088;-73
2023/10/27 12:54:03;;;;;;;19.55;3.50;;;;;;;;;;5022812;28;20292;-73
2023/10/27 12:56:28;;;;;;;15.60;3.20;;;;;;;;;;5025362;28;20124;-72
2023/10/27 12:58:53;;;;;;;16.17;3.03;;;;;;;;;;5022567;28;20025;-72
2023/10/27 13:01:19;;;;;;;17.83;2.30;;;;;;;;;;5028123;28;20774;-73
2023/10/27 13:03:44;;;;;;;10.82;2.50;;;;;;;;;;5028880;28;20351;-73
2023/10/27 13:06:13;;;;;;;4.83;1.80;;;;;;;;;;5028730;28;20017;-73
2023/10/27 13:08:38;;;;;;;8.43;2.33;;;;;;;;;;5023438;28;20284;-73
2023/10/27 13:11:05;;;;;;;5.97;1.90;;;;;;;;;;5029700;28;20009;-73
2023/10/27 13:13:30;;;;;;;13.30;2.50;;;;;;;;;;5025030;28;20597;-73
2023/10/27 13:15:55;;;;;;;7.90;1.75;;;;;;;;;;5021960;28;20025;-72
2023/10/27 13:18:20;;;;;;;3.87;1.50;;;;;;;;;;5023756;28;20083;-73
2023/10/27 13:20:45;;;;;;;12.83;1.83;;;;;;;;;;5019352;28;20272;-72
2023/10/27 13:23:11;;;;;;;9.57;1.65;;;;;;;;;;5022859;28;20260;-73
2023/10/27 13:25:36;;;;;;;10.60;1.83;;;;;;;;;;5021320;28;20029;-73
2023/10/27 13:28:03;;;;;;;7.00;1.90;;;;;;;;;;5028639;28;20268;-72
2023/10/27 13:30:29;;;;;;;19.13;1.88;;;;;;;;;;5024093;28;20501;-73
2023/10/27 13:32:54;;;;;;;7.38;1.85;;;;;;;;;;5025195;28;20017;-73
2023/10/27 13:35:22;;;;;;;9.77;1.70;;;;;;;;;;5020039;28;20382;-73
2023/10/27 13:37:48;;;;;;;14.05;2.03;;;;;;;;;;5019645;28;20602;-73
2023/10/27 13:40:19;;;;;;;13.23;2.58;;;;;;;;;;5027451;28;20017;-72
2023/10/27 13:42:46;;;;;;;14.52;2.35;;;;;;;;;;5023592;28;20028;-72
2023/10/27 13:45:11;;;;;;;14.60;2.47;;;;;;;;;;5025351;28;20017;-72
2023/10/27 13:47:36;;;;;;;5.32;1.85;;;;;;;;;;5018352;28;20026;-73
2023/10/27 13:50:03;;;;;;;11.63;2.25;;;;;;;;;;5024943;28;20017;-72
2023/10/27 13:52:28;;;;;;;9.63;2.45;;;;;;;;;;5026225;28;20504;-72
2023/10/27 13:54:54;;;;;;;14.82;2.72;;;;;;;;;;5027421;28;20057;-73
2023/10/27 13:57:19;;;;;;;8.73;2.70;;;;;;;;;;5022642;28;20026;-73
2023/10/27 13:59:44;;;;;;;12.25;3.25;;;;;;;;;;5025130;28;20363;-73
2023/10/27 14:02:10;;;;;;;9.40;2.72;;;;;;;;;;5020710;28;20041;-72
2023/10/27 14:04:35;;;;;;;5.87;2.20;;;;;;;;;;5018152;28;20026;-73
2023/10/27 14:07:00;;;;;;;10.43;3.13;;;;;;;;;;5023221;28;20671;-72
2023/10/27 14:09:29;;;;;;;14.93;3.40;;;;;;;;;;5019929;28;20390;-73
2023/10/27 14:11:54;;;;;;;11.43;3.03;;;;;;;;;;5026607;28;20021;-72
2023/10/27 14:14:23;;;;;;;6.57;2.35;;;;;;;;;;5018983;28;20013;-73
2023/10/27 14:16:48;;;;;;;9.60;2.42;;;;;;;;;;5018688;28;20475;-72
2023/10/27 14:19:14;;;;;;;11.07;2.72;;;;;;;;;;5017950;28;20028;-73
2023/10/27 14:21:40;;;;;;;8.93;2.72;;;;;;;;;;5022825;28;20025;-72
2023/10/27 14:24:06;;;;;;;14.55;2.60;;;;;;;;;;5023931;28;20079;-72
2023/10/27 14:26:31;;;;;;;5.75;2.10;;;;;;;;;;5018636;28;20018;-72
2023/10/27 14:29:00;;;;;;;14.27;2.50;;;;;;;;;;5023381;28;20028;-72
2023/10/27 14:31:25;;;;;;;13.05;2.47;;;;;;;;;;5020616;28;20155;-72
2023/10/27 14:33:50;;;;;;;9.07;2.40;;;;;;;;;;5022385;28;20116;-73